createdAt,value
2016-06-16T07:16:03.561Z,15
2016-06-16T07:16:49.298Z,15
2016-06-16T07:17:49.473Z,15
2016-06-16T07:18:49.241Z,20
2016-06-16T07:19:49.354Z,15
2016-06-16T07:20:49.185Z,15
2016-06-16T07:21:49.517Z,15
2016-06-16T07:22:49.160Z,20
2016-06-16T07:23:49.413Z,15
2016-06-16T07:24:49.183Z,15
2016-06-16T07:25:49.122Z,15
2016-06-16T07:26:49.110Z,15
2016-06-16T07:28:04.097Z,15
2016-06-16T07:28:49.131Z,15
2016-06-16T07:29:49.042Z,15
2016-06-16T07:30:49.075Z,15
2016-06-16T07:31:49.218Z,20
2016-06-16T07:32:49.081Z,20
2016-06-16T07:33:49.304Z,20
2016-06-16T07:48:36.802Z,25
2016-06-16T07:48:41.193Z,25
2016-06-16T07:48:55.693Z,20
2016-06-16T07:49:55.539Z,20
2016-06-16T07:50:55.136Z,20
2016-06-16T07:51:55.467Z,20
2016-06-16T07:52:55.314Z,20
2016-06-16T07:53:55.223Z,20
2016-06-16T07:54:55.524Z,20
2016-06-16T07:55:55.152Z,20
2016-06-16T07:56:55.171Z,20
2016-06-16T07:57:55.282Z,20
2016-06-16T07:58:55.207Z,20
2016-06-16T07:59:55.102Z,20
2016-06-16T08:00:55.495Z,20
2016-06-16T08:01:55.092Z,20
2016-06-16T08:02:54.251Z,20
2016-06-16T08:03:55.051Z,20
2016-06-16T08:04:55.101Z,20
2016-06-16T08:05:55.057Z,20
2016-06-16T08:06:55.327Z,15
2016-06-16T08:07:54.986Z,15
2016-06-16T08:08:54.911Z,15
2016-06-16T08:09:54.867Z,15
2016-06-16T08:10:54.808Z,15
2016-06-16T08:11:54.856Z,15
2016-06-16T08:12:55.298Z,15
2016-06-16T08:13:54.785Z,15
2016-06-16T08:14:54.740Z,15
2016-06-16T08:15:54.682Z,15
2016-06-16T08:16:55.091Z,15
2016-06-16T08:17:54.797Z,15
2016-06-16T08:18:55.036Z,15
2016-06-16T08:20:13.509Z,15
2016-06-16T08:21:33.263Z,15
2016-06-16T08:21:54.623Z,20
2016-06-16T08:22:54.640Z,20
2016-06-16T08:23:54.644Z,15
2016-06-16T08:24:54.865Z,15
2016-06-16T08:25:54.603Z,15
2016-06-16T08:26:54.559Z,20
2016-06-16T08:27:54.750Z,20
2016-06-16T08:28:54.363Z,20
2016-06-16T08:29:54.584Z,20
2016-06-16T08:30:55.025Z,20
2016-06-16T08:31:54.372Z,20
2016-06-16T08:32:54.421Z,20
2016-06-16T08:33:54.549Z,20
2016-06-16T08:34:54.382Z,20
2016-06-16T08:35:54.353Z,20
2016-06-16T08:36:54.138Z,25
2016-06-16T08:37:54.358Z,25
2016-06-16T08:38:54.206Z,25
2016-06-16T08:39:54.334Z,25
2016-06-16T08:40:54.290Z,20
2016-06-16T08:41:54.434Z,20
2016-06-16T08:42:54.594Z,25
2016-06-16T08:43:54.191Z,25
2016-06-16T08:44:54.256Z,25
2016-06-16T08:45:54.275Z,25
2016-06-16T08:46:54.137Z,25
2016-06-16T08:47:54.592Z,20
2016-06-16T08:48:19.925Z,20
2016-06-16T08:48:34.175Z,20
2016-06-16T08:49:34.068Z,25
2016-06-16T08:50:34.025Z,20
2016-06-16T08:51:33.855Z,20
2016-06-16T08:52:33.921Z,25
2016-06-16T08:53:34.003Z,25
2016-06-16T08:54:33.990Z,25
2016-06-16T08:55:34.181Z,25
2016-06-16T08:56:34.261Z,25
2016-06-16T08:57:33.937Z,25
2016-06-16T08:58:33.751Z,25
2016-06-16T08:59:33.865Z,20
2016-06-16T09:00:33.868Z,25
2016-06-16T09:01:33.793Z,25
2016-06-16T09:02:34.280Z,20
2016-06-16T09:03:33.830Z,20
2016-06-16T09:04:33.645Z,20
2016-06-16T09:05:33.728Z,20
2016-06-16T09:06:34.026Z,20
2016-06-16T09:07:33.795Z,20
2016-06-16T09:08:34.157Z,20
2016-06-16T09:09:33.521Z,20
2016-06-16T09:10:33.649Z,20
2016-06-16T09:11:33.699Z,20
2016-06-16T09:12:33.466Z,20
2016-06-16T09:13:33.720Z,20
2016-06-16T09:14:33.692Z,20
2016-06-16T09:15:33.617Z,20
2016-06-16T09:16:33.589Z,20
2016-06-16T09:17:33.467Z,20
2016-06-16T09:18:33.845Z,25
2016-06-16T09:19:33.536Z,15
2016-06-16T09:20:34.054Z,15
2016-06-16T09:21:33.527Z,15
2016-06-16T09:22:33.669Z,15
2016-06-16T09:23:33.469Z,15
2016-06-16T09:24:33.426Z,20
2016-06-16T09:25:33.414Z,25
2016-06-16T09:26:33.995Z,25
2016-06-16T09:27:33.420Z,25
2016-06-16T09:28:33.219Z,25
2016-06-16T09:30:33.304Z,25
2016-06-16T09:31:33.588Z,30
2016-06-16T09:32:47.403Z,30
2016-06-16T09:33:33.798Z,35
2016-06-16T09:34:33.269Z,35
2016-06-16T09:35:33.148Z,35
2016-06-16T09:36:33.151Z,30
2016-06-16T09:37:33.138Z,25
2016-06-16T09:38:33.218Z,25
2016-06-16T09:39:32.832Z,30
2016-06-16T09:40:32.960Z,30
2016-06-16T09:41:32.978Z,25
2016-06-16T09:42:33.012Z,25
2016-06-16T09:43:33.000Z,25
2016-06-16T09:44:33.425Z,25
2016-06-16T09:45:33.225Z,20
2016-06-16T09:46:32.947Z,25
2016-06-16T09:47:33.277Z,20
2016-06-16T09:48:32.749Z,25
2016-06-16T09:49:33.050Z,25
2016-06-16T09:50:33.208Z,25
2016-06-16T09:51:32.884Z,25
2016-06-16T09:52:32.965Z,20
2016-06-16T09:53:32.781Z,20
2016-06-16T09:54:32.814Z,25
2016-06-16T09:55:32.912Z,30
2016-06-16T09:56:33.118Z,25
2016-06-16T09:57:32.840Z,25
2016-06-16T09:58:33.280Z,30
2016-06-16T09:59:32.518Z,25
2016-06-16T10:00:32.677Z,25
2016-06-16T10:01:32.492Z,30
2016-06-16T10:02:32.996Z,30
2016-06-16T10:03:32.968Z,30
2016-06-16T10:04:32.705Z,35
2016-06-16T10:05:32.787Z,35
2016-06-16T10:06:32.649Z,30
2016-06-16T10:07:34.604Z,35
2016-06-16T10:08:34.327Z,35
2016-06-16T10:09:32.908Z,30
2016-06-16T10:10:32.755Z,35
2016-06-16T10:11:32.476Z,35
2016-06-16T10:12:32.386Z,25
2016-06-16T10:13:32.561Z,25
2016-06-16T10:14:32.752Z,25
2016-06-16T10:15:32.380Z,25
2016-06-16T10:16:32.351Z,25
2016-06-16T10:17:32.308Z,25
2016-06-16T10:18:32.169Z,25
2016-06-16T10:19:32.205Z,25
2016-06-16T10:20:32.739Z,30
2016-06-16T10:21:32.367Z,30
2016-06-16T10:22:32.057Z,30
2016-06-16T10:23:32.420Z,30
2016-06-16T10:24:32.157Z,30
2016-06-16T10:25:32.394Z,30
2016-06-16T10:26:32.491Z,30
2016-06-16T10:27:32.120Z,30
2016-06-16T10:28:32.075Z,30
2016-06-16T10:29:32.095Z,30
2016-06-16T10:30:32.051Z,30
2016-06-16T10:31:32.101Z,30
2016-06-16T10:32:32.120Z,30
2016-06-16T10:33:32.638Z,30
2016-06-16T10:34:32.109Z,30
2016-06-16T10:35:32.144Z,30
2016-06-16T10:36:32.257Z,30
2016-06-16T10:37:32.041Z,35
2016-06-16T10:38:32.263Z,35
2016-06-16T10:39:31.812Z,40
2016-06-16T10:40:32.254Z,40
2016-06-16T10:41:31.850Z,40
2016-06-16T10:42:31.993Z,40
2016-06-16T10:43:31.856Z,35
2016-06-16T10:44:33.110Z,35
2016-06-16T10:45:31.691Z,35
2016-06-16T10:46:31.881Z,30
2016-06-16T10:47:31.853Z,25
2016-06-16T10:48:31.778Z,25
2016-06-16T10:49:31.953Z,30
2016-06-16T10:50:32.065Z,30
2016-06-16T10:51:31.615Z,30
2016-06-16T10:52:31.618Z,35
2016-06-16T10:53:31.871Z,30
2016-06-16T10:54:31.469Z,35
2016-06-16T10:55:31.611Z,35
2016-06-16T10:56:31.912Z,35
2016-06-16T10:57:31.665Z,35
2016-06-16T10:58:31.653Z,30
2016-06-16T10:59:31.389Z,30
2016-06-16T11:00:31.627Z,30
2016-06-16T11:01:31.490Z,30
2016-06-16T11:02:31.633Z,30
2016-06-16T11:03:31.512Z,20
2016-06-16T11:04:31.561Z,20
2016-06-16T11:07:54.415Z,25
2016-06-16T11:09:44.811Z,30
2016-06-16T11:09:59.296Z,30
2016-06-16T11:10:58.924Z,30
2016-06-16T11:11:58.927Z,30
2016-06-16T11:13:43.840Z,45
2016-06-16T11:13:58.855Z,40
2016-06-16T11:14:58.874Z,40
2016-06-16T11:15:58.861Z,30
2016-06-16T11:17:12.724Z,40
2016-06-16T11:17:58.914Z,35
2016-06-16T11:18:59.089Z,35
2016-06-16T11:19:58.795Z,30
2016-06-16T11:20:58.705Z,35
2016-06-16T11:21:58.786Z,35
2016-06-16T11:22:58.852Z,35
2016-06-16T11:23:58.761Z,45
2016-06-16T11:24:59.045Z,45
2016-06-16T11:25:58.548Z,50
2016-06-16T11:26:58.800Z,40
2016-06-16T11:27:58.648Z,40
2016-06-16T11:28:58.776Z,40
2016-06-16T11:29:59.560Z,40
2016-06-16T11:30:58.798Z,35
2016-06-16T11:31:58.379Z,40
2016-06-16T11:32:58.694Z,60
2016-06-16T11:33:58.870Z,45
2016-06-16T11:34:58.310Z,45
2016-06-16T11:35:58.689Z,40
2016-06-16T11:36:58.801Z,45
2016-06-16T11:37:58.553Z,50
2016-06-16T11:38:58.447Z,55
2016-06-16T11:39:58.107Z,50
2016-06-16T11:40:58.313Z,55
2016-06-16T11:41:58.316Z,55
2016-06-16T11:42:58.757Z,60
2016-06-16T11:43:58.025Z,60
2016-06-16T11:44:58.497Z,65
2016-06-16T11:45:58.453Z,60
2016-06-16T11:46:58.285Z,55
2016-06-16T11:47:58.318Z,50
2016-06-16T11:48:58.212Z,55
2016-06-16T11:49:58.387Z,60
2016-06-16T11:50:58.077Z,70
2016-06-16T11:51:58.269Z,90
2016-06-16T11:52:58.225Z,140
2016-06-16T11:53:58.119Z,250
2016-06-16T11:54:58.575Z,315
2016-06-16T11:55:58.140Z,260
2016-06-16T11:56:58.143Z,180
2016-06-16T11:57:57.896Z,155
2016-06-16T11:58:58.822Z,155
2016-06-16T11:59:58.122Z,155
2016-06-16T12:00:58.312Z,160
2016-06-16T12:01:57.956Z,120
2016-06-16T12:02:57.928Z,95
2016-06-16T12:03:57.930Z,85
2016-06-16T12:04:58.106Z,70
2016-06-16T12:05:57.671Z,110
2016-06-16T12:06:58.112Z,80
2016-06-16T12:07:57.912Z,90
2016-06-16T12:08:57.930Z,140
2016-06-16T12:09:58.011Z,1155
2016-06-16T12:10:57.764Z,410
2016-06-16T12:11:57.939Z,1825
2016-06-16T12:12:58.224Z,1935
2016-06-16T12:13:57.977Z,1990
2016-06-16T12:14:57.746Z,1885
2016-06-16T12:15:57.780Z,1035
2016-06-16T12:16:57.767Z,1310
2016-06-16T12:17:57.708Z,365
2016-06-16T12:18:57.993Z,60
2016-06-16T12:19:57.589Z,40
2016-06-16T12:20:57.670Z,70
2016-06-16T12:21:57.423Z,105
2016-06-16T12:22:57.661Z,65
2016-06-16T12:23:57.554Z,195
2016-06-16T12:24:58.090Z,150
2016-06-16T12:25:57.592Z,110
2016-06-16T12:26:57.720Z,550
2016-06-16T12:27:57.660Z,645
2016-06-16T12:28:57.352Z,1010
2016-06-16T12:29:57.464Z,1390
2016-06-16T12:30:57.780Z,310
2016-06-16T12:31:57.486Z,1080
2016-06-16T12:32:57.598Z,1470
2016-06-16T12:33:57.898Z,285
2016-06-16T12:34:57.745Z,105
2016-06-16T12:35:57.420Z,70
2016-06-16T12:36:58.173Z,90
2016-06-16T12:37:57.317Z,70
2016-06-16T12:38:57.148Z,55
2016-06-16T12:39:57.338Z,45
2016-06-16T12:40:57.264Z,50
2016-06-16T12:41:57.594Z,30
2016-06-16T12:42:57.487Z,30
2016-06-16T12:43:57.257Z,30
2016-06-16T12:44:57.228Z,30
2016-06-16T12:45:57.216Z,35
2016-06-16T12:46:57.157Z,30
2016-06-16T12:47:57.050Z,25
2016-06-16T12:48:57.491Z,20
2016-06-16T12:49:56.978Z,15
2016-06-16T12:50:56.950Z,10
2016-06-16T12:51:57.095Z,10
2016-06-16T12:52:56.973Z,10
2016-06-16T12:59:18.912Z,5
2016-06-16T13:00:19.181Z,0
2016-06-16T13:01:18.918Z,0
2016-06-16T13:02:18.922Z,0
2016-06-16T13:03:18.941Z,0
2016-06-16T13:04:19.085Z,0
2016-06-16T13:05:18.884Z,0
2016-06-16T13:06:19.183Z,0
2016-06-16T13:07:18.781Z,0
2016-06-16T13:08:18.722Z,0
2016-06-16T13:09:18.725Z,0
2016-06-16T13:10:18.681Z,0
2016-06-16T13:11:18.825Z,0
2016-06-16T13:12:19.031Z,0
2016-06-16T13:13:18.659Z,0
2016-06-16T13:14:18.584Z,0
2016-06-16T13:15:18.665Z,0
2016-06-16T13:16:18.747Z,0
2016-06-16T13:17:18.484Z,0
2016-06-16T13:18:19.143Z,0
2016-06-16T13:19:18.537Z,0
2016-06-16T13:20:18.477Z,0
2016-06-16T13:21:18.715Z,0
2016-06-16T13:22:18.343Z,0
2016-06-16T13:23:18.611Z,0
2016-06-16T13:24:18.600Z,0
2016-06-16T13:25:18.367Z,0
2016-06-16T13:26:18.996Z,0
2016-06-16T13:27:18.436Z,0
2016-06-16T13:28:18.393Z,0
2016-06-16T13:29:18.271Z,0
2016-06-16T13:30:18.665Z,0
2016-06-16T13:31:18.370Z,0
2016-06-16T13:32:18.780Z,0
2016-06-16T13:33:18.158Z,0
2016-06-16T13:34:18.286Z,0
2016-06-16T13:35:17.945Z,0
2016-06-16T13:36:18.604Z,0
2016-06-16T13:37:18.092Z,0
2016-06-16T13:38:18.142Z,0
2016-06-16T13:39:18.207Z,0
2016-06-16T13:40:18.117Z,0
2016-06-16T13:41:17.792Z,0
2016-06-16T13:42:18.764Z,0
2016-06-16T13:43:17.939Z,0
2016-06-16T13:44:18.004Z,0
2016-06-16T13:45:18.086Z,0
2016-06-16T13:46:17.995Z,0
2016-06-16T13:47:18.030Z,0
2016-06-16T13:48:18.626Z,0
2016-06-16T13:49:17.754Z,0
2016-06-16T13:50:18.022Z,5
2016-06-16T13:51:17.932Z,5
2016-06-16T13:52:17.889Z,5
2016-06-16T13:53:17.923Z,5
2016-06-16T13:59:01.451Z,5
2016-06-16T14:00:01.517Z,5
2016-06-16T14:01:01.332Z,10
2016-06-16T14:02:01.414Z,10
2016-06-16T14:03:01.526Z,10
2016-06-16T14:04:01.310Z,15
2016-06-16T14:05:01.438Z,15
2016-06-16T14:06:01.488Z,15
2016-06-16T14:07:01.289Z,15
2016-06-16T14:08:01.275Z,15
2016-06-16T14:09:01.186Z,15
2016-06-16T14:10:00.923Z,15
2016-06-16T14:11:01.676Z,15
2016-06-16T14:12:00.912Z,20
2016-06-16T14:13:01.291Z,20
2016-06-16T14:14:01.279Z,20
2016-06-16T14:15:01.328Z,20
2016-06-16T14:16:01.066Z,20
2016-06-16T14:17:01.211Z,20
2016-06-16T14:18:01.026Z,20
2016-06-16T14:19:01.045Z,20
2016-06-16T14:20:01.611Z,20
2016-06-16T14:21:01.162Z,20
2016-06-16T14:22:00.961Z,20
2016-06-16T14:23:01.184Z,20
2016-06-16T14:24:00.936Z,20
2016-06-16T14:25:00.783Z,20
2016-06-16T14:26:01.130Z,25
2016-06-16T14:27:00.882Z,25
2016-06-16T14:28:00.839Z,25
2016-06-16T14:29:01.466Z,25
2016-06-16T14:30:00.924Z,25
2016-06-16T14:31:01.083Z,25
2016-06-16T14:32:00.726Z,25
2016-06-16T14:33:00.402Z,25
2016-06-16T14:34:00.845Z,30
2016-06-16T14:35:00.802Z,35
2016-06-16T14:36:00.777Z,35
2016-06-16T14:37:00.750Z,35
2016-06-16T14:38:00.598Z,45
2016-06-16T14:39:00.665Z,60
2016-06-16T14:40:00.544Z,90
2016-06-16T14:41:01.048Z,105
2016-06-16T14:42:00.520Z,125
2016-06-16T14:43:00.648Z,200
2016-06-16T14:44:00.481Z,250
2016-06-16T14:45:00.500Z,265
2016-06-16T14:46:00.581Z,375
2016-06-16T14:47:00.913Z,350
2016-06-16T14:48:00.447Z,370
2016-06-16T14:49:00.435Z,390
2016-06-16T14:50:00.438Z,340
2016-06-16T14:51:00.364Z,405
2016-06-16T14:52:00.322Z,290
2016-06-16T14:53:00.934Z,370
2016-06-16T14:54:00.283Z,415
2016-06-16T14:55:00.584Z,280
2016-06-16T14:56:00.165Z,135
2016-06-16T14:57:00.435Z,60
2016-06-16T14:58:00.266Z,40
2016-06-16T14:59:00.301Z,35
2016-06-16T15:00:00.257Z,35
2016-06-16T15:01:00.276Z,35
2016-06-16T15:02:00.342Z,35
2016-06-16T15:03:00.111Z,35
2016-06-16T15:04:00.162Z,35
2016-06-16T15:05:00.431Z,35
2016-06-16T15:06:00.262Z,35
2016-06-16T15:07:00.141Z,35
2016-06-16T15:08:00.442Z,35
2016-06-16T15:09:00.071Z,35
2016-06-16T15:10:00.029Z,30
2016-06-16T15:11:00.330Z,30
2016-06-16T15:11:59.973Z,25
2016-06-16T15:13:00.118Z,15
2016-06-16T15:13:59.997Z,15
2016-06-16T15:15:00.031Z,10
2016-06-16T15:16:00.051Z,10
2016-06-16T15:17:00.288Z,5
2016-06-16T15:18:00.588Z,5
2016-06-16T15:18:59.920Z,5
2016-06-16T15:19:59.985Z,5
2016-06-16T15:20:59.817Z,5
2016-06-16T15:21:59.928Z,5
2016-06-16T15:23:00.181Z,0
2016-06-16T15:23:59.623Z,0
2016-06-16T15:24:59.735Z,0
2016-06-16T15:25:59.817Z,0
2016-06-16T15:26:59.803Z,0
2016-06-16T15:27:59.698Z,0
2016-06-16T15:29:00.015Z,0
2016-06-16T15:29:59.596Z,0
2016-06-16T15:30:59.709Z,0
2016-06-16T15:31:59.587Z,0
2016-06-16T15:32:59.684Z,0
2016-06-16T15:33:59.578Z,0
2016-06-16T15:34:59.769Z,0
2016-06-16T15:35:59.538Z,0
2016-06-16T15:36:59.712Z,5
2016-06-16T15:37:59.528Z,5
2016-06-16T15:38:59.484Z,5
2016-06-16T15:39:59.410Z,5
2016-06-16T15:40:59.726Z,5
2016-06-16T15:41:59.547Z,5
2016-06-16T15:42:59.538Z,5
2016-06-16T15:43:59.562Z,5
2016-06-16T15:44:59.367Z,5
2016-06-16T15:45:59.138Z,5
2016-06-16T15:46:59.362Z,5
2016-06-16T15:47:59.368Z,5
2016-06-16T15:48:59.325Z,5
2016-06-16T15:49:59.409Z,5
2016-06-16T15:50:59.413Z,5
2016-06-16T15:52:13.308Z,5
2016-06-16T15:52:59.703Z,5
2016-06-16T15:53:59.253Z,5
2016-06-16T15:54:59.211Z,10
2016-06-16T15:55:59.167Z,10
2016-06-16T15:56:59.218Z,10
2016-06-16T15:57:59.378Z,10
2016-06-16T15:58:59.460Z,10
2016-06-16T15:59:59.541Z,10
2016-06-16T16:00:59.044Z,10
2016-06-16T16:01:59.142Z,10
2016-06-16T16:02:59.239Z,10
2016-06-16T16:03:58.993Z,10
2016-06-16T16:04:59.372Z,10
2016-06-16T16:05:59.092Z,10
2016-06-16T16:06:58.940Z,15
2016-06-16T16:07:58.850Z,15
2016-06-16T16:08:59.057Z,15
2016-06-16T16:09:58.904Z,15
2016-06-16T16:10:59.298Z,15
2016-06-16T16:11:58.818Z,20
2016-06-16T16:12:59.211Z,20
2016-06-16T16:13:58.777Z,20
2016-06-16T16:14:58.874Z,25
2016-06-16T16:15:58.954Z,25
2016-06-16T16:16:59.035Z,25
2016-06-16T16:17:58.865Z,25
2016-06-16T16:18:58.647Z,25
2016-06-16T16:19:58.697Z,25
2016-06-16T16:20:58.919Z,25
2016-06-16T16:21:59.108Z,25
2016-06-16T16:22:58.972Z,20
2016-06-16T16:23:58.787Z,20
2016-06-16T16:24:58.602Z,20
2016-06-16T16:25:58.527Z,20
2016-06-16T16:26:58.547Z,20
2016-06-16T16:27:58.675Z,20
2016-06-16T16:28:58.851Z,20
2016-06-16T16:29:58.713Z,20
2016-06-16T16:30:58.842Z,15
2016-06-16T16:31:58.503Z,15
2016-06-16T16:32:58.676Z,15
2016-06-16T16:33:58.587Z,15
2016-06-16T16:34:58.605Z,15
2016-06-16T16:35:58.327Z,15
2016-06-16T16:36:58.254Z,15
2016-06-16T16:37:58.303Z,15
2016-06-16T16:38:58.479Z,15
2016-06-16T16:39:58.280Z,15
2016-06-16T16:40:58.704Z,15
2016-06-16T16:41:58.318Z,15
2016-06-16T16:42:58.336Z,15
2016-06-16T16:43:58.294Z,15
2016-06-16T16:44:58.172Z,15
2016-06-16T16:45:58.284Z,15
2016-06-16T16:46:58.647Z,15
2016-06-16T16:47:58.307Z,15
2016-06-16T16:48:58.186Z,15
2016-06-16T16:49:57.954Z,15
2016-06-16T16:50:57.943Z,15
2016-06-16T16:51:58.085Z,15
2016-06-16T16:52:58.261Z,15
2016-06-16T16:53:58.013Z,15
2016-06-16T16:54:58.000Z,15
2016-06-16T16:55:58.286Z,15
2016-06-16T16:56:57.712Z,15
2016-06-16T16:57:57.996Z,15
2016-06-16T16:58:58.344Z,15
2016-06-16T16:59:57.893Z,10
2016-06-16T17:00:57.896Z,10
2016-06-16T17:01:57.979Z,10
2016-06-16T17:02:57.841Z,5
2016-06-16T17:03:57.861Z,5
2016-06-16T17:04:58.082Z,5
2016-06-16T17:05:58.273Z,5
2016-06-16T17:06:57.902Z,5
2016-06-16T17:07:57.656Z,5
2016-06-16T17:08:57.956Z,5
2016-06-16T17:09:57.819Z,5
2016-06-16T17:10:58.150Z,5
2016-06-16T17:11:57.967Z,5
2016-06-16T17:12:57.595Z,5
2016-06-16T17:13:57.661Z,5
2016-06-16T17:14:57.805Z,10
2016-06-16T17:16:11.714Z,10
2016-06-16T17:16:57.890Z,10
2016-06-16T17:17:57.518Z,5
2016-06-16T17:18:57.850Z,5
2016-06-16T17:19:57.509Z,5
2016-06-16T17:20:57.497Z,5
2016-06-16T17:21:57.719Z,5
2016-06-16T17:23:11.380Z,5
2016-06-16T17:23:57.727Z,5
2016-06-16T17:24:57.265Z,5
2016-06-16T17:25:57.646Z,5
2016-06-16T17:26:57.291Z,5
2016-06-16T17:27:57.437Z,5
2016-06-16T17:28:57.519Z,5
2016-06-16T17:29:57.555Z,5
2016-06-16T17:30:57.278Z,5
2016-06-16T17:31:57.266Z,5
2016-06-16T17:32:57.396Z,5
2016-06-16T17:33:57.087Z,5
2016-06-16T17:34:58.153Z,5
2016-06-16T17:35:57.236Z,5
2016-06-16T17:36:57.193Z,5
2016-06-16T17:37:57.212Z,5
2016-06-16T17:38:57.262Z,5
2016-06-16T17:39:57.204Z,5
2016-06-16T17:40:57.380Z,5
2016-06-16T17:41:57.008Z,5
2016-06-16T17:42:57.057Z,5
2016-06-16T17:43:57.124Z,5
2016-06-16T17:44:57.830Z,5
2016-06-16T17:45:57.084Z,5
2016-06-16T17:46:57.384Z,5
2016-06-16T17:47:56.809Z,5
2016-06-16T17:48:56.827Z,5
2016-06-16T17:49:56.972Z,5
2016-06-16T17:50:57.007Z,5
2016-06-16T17:51:56.699Z,5
2016-06-16T17:52:57.296Z,5
2016-06-16T17:53:57.064Z,5
2016-06-16T17:54:57.271Z,5
2016-06-16T17:55:56.868Z,5
2016-06-16T17:56:56.809Z,5
2016-06-16T17:57:56.953Z,5
2016-06-16T17:58:57.066Z,5
2016-06-16T17:59:56.726Z,5
2016-06-16T18:00:57.339Z,5
2016-06-16T18:01:56.717Z,5
2016-06-16T18:02:56.659Z,5
2016-06-16T18:03:56.302Z,5
2016-06-16T18:04:57.118Z,5
2016-06-16T18:05:56.637Z,5
2016-06-16T18:06:56.640Z,5
2016-06-16T18:07:56.660Z,5
2016-06-16T18:08:56.663Z,5
2016-06-16T18:09:56.510Z,5
2016-06-16T18:10:56.842Z,5
2016-06-16T18:11:56.829Z,5
2016-06-16T18:12:56.490Z,5
2016-06-16T18:13:56.494Z,5
2016-06-16T18:14:56.558Z,5
2016-06-16T18:15:56.921Z,5
2016-06-16T18:16:56.706Z,5
2016-06-16T18:17:56.882Z,5
2016-06-16T18:18:56.370Z,5
2016-06-16T18:19:56.310Z,5
2016-06-16T18:20:56.470Z,0
2016-06-16T18:21:56.349Z,0
2016-06-16T18:22:56.634Z,0
2016-06-16T18:23:56.496Z,0
2016-06-16T18:24:56.265Z,5
2016-06-16T18:25:55.628Z,0
2016-06-16T18:26:56.163Z,5
2016-06-16T18:27:56.213Z,5
2016-06-16T18:28:56.655Z,5
2016-06-16T18:29:56.064Z,5
2016-06-16T18:30:56.208Z,5
2016-06-16T18:31:56.103Z,0
2016-06-16T18:32:56.077Z,0
2016-06-16T18:33:56.333Z,0
2016-06-16T18:34:56.666Z,0
2016-06-16T18:35:56.156Z,0
2016-06-16T18:36:56.004Z,0
2016-06-16T18:37:55.946Z,0
2016-06-16T18:38:56.419Z,0
2016-06-16T18:39:55.955Z,0
2016-06-16T18:40:56.286Z,0
2016-06-16T18:41:55.979Z,0
2016-06-16T18:42:56.013Z,0
2016-06-16T18:43:55.876Z,0
2016-06-16T18:44:56.004Z,0
2016-06-16T18:45:55.898Z,0
2016-06-16T18:46:56.386Z,5
2016-06-16T18:47:55.874Z,5
2016-06-16T18:48:56.018Z,0
2016-06-16T18:49:55.725Z,0
2016-06-16T18:50:55.963Z,0
2016-06-16T18:51:55.559Z,0
2016-06-16T18:52:56.156Z,0
2016-06-16T18:53:55.613Z,0
2016-06-16T18:54:55.945Z,0
2016-06-16T18:55:55.636Z,0
2016-06-16T18:56:55.859Z,0
2016-06-16T18:57:55.643Z,0
2016-06-16T18:58:55.943Z,0
2016-06-16T18:59:55.541Z,0
2016-06-16T19:00:55.622Z,0
2016-06-16T19:01:55.516Z,0
2016-06-16T19:02:55.598Z,0
2016-06-16T19:03:55.585Z,0
2016-06-16T19:04:55.839Z,0
2016-06-16T19:05:55.405Z,0
2016-06-16T19:06:55.487Z,0
2016-06-16T19:08:09.602Z,0
2016-06-16T19:08:55.464Z,0
2016-06-16T19:09:55.344Z,0
2016-06-16T19:10:55.457Z,0
2016-06-16T19:11:55.337Z,0
2016-06-16T19:12:55.341Z,0
2016-06-16T19:13:55.344Z,0
2016-06-16T19:14:55.223Z,0
2016-06-16T19:15:55.351Z,0
2016-06-16T19:16:55.574Z,0
2016-06-16T19:17:55.468Z,0
2016-06-16T19:18:55.268Z,0
2016-06-16T19:19:54.912Z,0
2016-06-16T19:20:55.525Z,0
2016-06-16T19:21:55.012Z,0
2016-06-16T19:22:55.408Z,0
2016-06-16T19:23:55.035Z,0
2016-06-16T19:24:55.070Z,0
2016-06-16T19:25:54.854Z,0
2016-06-16T19:26:54.843Z,0
2016-06-16T19:27:54.847Z,0
2016-06-16T19:28:55.584Z,0
2016-06-16T19:29:55.103Z,0
2016-06-16T19:30:55.169Z,0
2016-06-16T19:31:54.938Z,0
2016-06-16T19:32:55.582Z,0
2016-06-16T19:33:54.992Z,0
2016-06-16T19:34:55.104Z,0
2016-06-16T19:35:55.030Z,0
2016-06-16T19:36:54.783Z,0
2016-06-16T19:37:54.584Z,0
2016-06-16T19:38:55.040Z,0
2016-06-16T19:39:54.685Z,0
2016-06-16T19:40:55.063Z,0
2016-06-16T19:41:54.660Z,0
2016-06-16T19:42:54.476Z,0
2016-06-16T19:43:55.370Z,0
2016-06-16T19:44:56.358Z,0
2016-06-16T19:45:55.174Z,0
2016-06-16T19:46:55.646Z,0
2016-06-16T19:47:54.603Z,0
2016-06-16T19:48:54.653Z,0
2016-06-16T19:49:54.438Z,0
2016-06-16T19:50:55.363Z,0
2016-06-16T19:51:54.602Z,0
2016-06-16T19:52:54.776Z,0
2016-06-16T19:53:54.498Z,0
2016-06-16T19:54:54.471Z,0
2016-06-16T19:55:54.349Z,0
2016-06-16T19:56:54.228Z,0
2016-06-16T19:57:54.450Z,0
2016-06-16T19:58:54.704Z,0
2016-06-16T19:59:54.347Z,0
2016-06-16T20:00:54.383Z,0
2016-06-16T20:01:54.386Z,0
2016-06-16T20:02:54.310Z,0
2016-06-16T20:03:54.721Z,0
2016-06-16T20:04:54.428Z,0
2016-06-16T20:05:54.290Z,0
2016-06-16T20:06:54.168Z,0
2016-06-16T20:07:54.156Z,0
2016-06-16T20:08:54.113Z,0
2016-06-16T20:09:54.226Z,0
2016-06-16T20:10:54.510Z,0
2016-06-16T20:11:54.092Z,0
2016-06-16T20:12:54.252Z,0
2016-06-16T20:13:53.990Z,0
2016-06-16T20:14:54.026Z,0
2016-06-16T20:15:54.219Z,0
2016-06-16T20:16:54.333Z,0
2016-06-16T20:17:53.932Z,0
2016-06-16T20:18:53.999Z,0
2016-06-16T20:19:53.832Z,0
2016-06-16T20:20:53.914Z,0
2016-06-16T20:21:53.903Z,0
2016-06-16T20:22:54.250Z,0
2016-06-16T20:23:53.895Z,0
2016-06-16T20:24:53.789Z,0
2016-06-16T20:25:53.964Z,0
2016-06-16T20:26:53.624Z,0
2016-06-16T20:27:54.284Z,0
2016-06-16T20:28:53.927Z,0
2016-06-16T20:29:53.744Z,0
2016-06-16T20:30:53.623Z,0
2016-06-16T20:31:53.672Z,0
2016-06-16T20:32:53.676Z,0
2016-06-16T20:33:53.648Z,0
2016-06-16T20:34:53.964Z,0
2016-06-16T20:35:53.640Z,0
2016-06-16T20:36:53.644Z,0
2016-06-16T20:37:53.553Z,0
2016-06-16T20:38:53.588Z,0
2016-06-16T20:39:53.466Z,0
2016-06-16T20:40:53.938Z,0
2016-06-16T20:41:53.473Z,0
2016-06-16T20:42:53.679Z,0
2016-06-16T20:43:53.418Z,0
2016-06-16T20:44:53.124Z,0
2016-06-16T20:45:53.268Z,0
2016-06-16T20:46:53.865Z,0
2016-06-16T20:47:53.369Z,0
2016-06-16T20:48:53.356Z,0
2016-06-16T20:49:53.250Z,0
2016-06-16T20:50:53.692Z,0
2016-06-16T20:51:53.288Z,0
2016-06-16T20:52:53.495Z,0
2016-06-16T20:53:53.264Z,0
2016-06-16T20:54:52.717Z,0
2016-06-16T20:55:53.162Z,0
2016-06-16T20:56:53.680Z,0
2016-06-16T20:57:53.055Z,0
2016-06-16T20:58:53.515Z,0
2016-06-16T20:59:52.969Z,0
2016-06-16T21:00:53.066Z,0
2016-06-16T21:01:53.007Z,0
2016-06-16T21:02:53.105Z,0
2016-06-16T21:03:53.062Z,0
2016-06-16T21:04:53.330Z,0
2016-06-16T21:05:52.958Z,0
2016-06-16T21:06:53.056Z,0
2016-06-16T21:07:53.450Z,0
2016-06-16T21:08:52.781Z,0
2016-06-16T21:09:52.722Z,0
2016-06-16T21:10:53.054Z,0
2016-06-16T21:11:52.823Z,0
2016-06-16T21:12:53.030Z,0
2016-06-16T21:13:52.783Z,0
2016-06-16T21:14:52.631Z,0
2016-06-16T21:15:52.446Z,0
2016-06-16T21:16:53.871Z,0
2016-06-16T21:17:52.735Z,0
2016-06-16T21:18:52.753Z,0
2016-06-16T21:19:52.679Z,0
2016-06-16T21:20:52.901Z,0
2016-06-16T21:21:52.467Z,0
2016-06-16T21:22:53.033Z,0
2016-06-16T21:23:52.633Z,0
2016-06-16T21:24:52.826Z,0
2016-06-16T21:25:52.706Z,0
2016-06-16T21:26:52.322Z,0
2016-06-16T21:27:52.499Z,0
2016-06-16T21:28:52.816Z,0
2016-06-16T21:29:52.476Z,0
2016-06-16T21:30:52.433Z,0
2016-06-16T21:31:52.454Z,0
2016-06-16T21:32:52.395Z,0
2016-06-16T21:33:52.868Z,0
2016-06-16T21:34:52.716Z,0
2016-06-16T21:35:52.345Z,0
2016-06-16T21:36:52.489Z,0
2016-06-16T21:37:52.852Z,0
2016-06-16T21:38:52.340Z,0
2016-06-16T21:39:52.126Z,0
2016-06-16T21:40:52.535Z,0
2016-06-16T21:41:52.350Z,0
2016-06-16T21:42:52.338Z,0
2016-06-16T21:43:52.389Z,0
2016-06-16T21:44:52.329Z,0
2016-06-16T21:45:51.974Z,0
2016-06-16T21:46:52.431Z,0
2016-06-16T21:47:52.106Z,0
2016-06-16T21:48:52.172Z,0
2016-06-16T21:49:51.924Z,0
2016-06-16T21:50:52.006Z,0
2016-06-16T21:51:52.026Z,0
2016-06-16T21:52:52.513Z,0
2016-06-16T21:53:52.017Z,0
2016-06-16T21:54:51.848Z,0
2016-06-16T21:55:51.946Z,0
2016-06-16T21:56:51.887Z,0
2016-06-16T21:57:52.108Z,0
2016-06-16T21:58:52.347Z,0
2016-06-16T21:59:51.600Z,0
2016-06-16T22:00:51.713Z,0
2016-06-16T22:01:51.951Z,0
2016-06-16T22:02:51.767Z,0
2016-06-16T22:03:52.004Z,0
2016-06-16T22:04:52.118Z,0
2016-06-16T22:05:51.574Z,0
2016-06-16T22:06:51.750Z,0